sensor_id;sensor_type;location;lat;lon;timestamp;P1;durP1;ratioP1;P2;durP2;ratioP2
31728;SDS011;18309;43.658;1.312;2024-03-02T00:01:05;48.35;;;14.98;;
31728;SDS011;18309;43.658;1.312;2024-03-02T00:03:32;26.95;;;10.13;;
31728;SDS011;18309;43.658;1.312;2024-03-02T00:05:58;24.02;;;10.00;;
31728;SDS011;18309;43.658;1.312;2024-03-02T00:08:24;17.80;;;7.65;;
31728;SDS011;18309;43.658;1.312;2024-03-02T00:10:57;22.35;;;6.95;;
31728;SDS011;18309;43.658;1.312;2024-03-02T00:13:23;17.05;;;7.25;;
31728;SDS011;18309;43.658;1.312;2024-03-02T00:15:54;14.18;;;6.38;;
31728;SDS011;18309;43.658;1.312;2024-03-02T00:18:26;15.73;;;6.13;;
31728;SDS011;18309;43.658;1.312;2024-03-02T00:20:55;14.60;;;5.65;;
31728;SDS011;18309;43.658;1.312;2024-03-02T00:23:22;13.90;;;4.72;;
31728;SDS011;18309;43.658;1.312;2024-03-02T00:25:49;16.58;;;4.80;;
31728;SDS011;18309;43.658;1.312;2024-03-02T00:28:34;11.38;;;4.00;;
31728;SDS011;18309;43.658;1.312;2024-03-02T00:36:06;9.75;;;2.83;;
31728;SDS011;18309;43.658;1.312;2024-03-02T00:38:33;11.07;;;2.50;;
31728;SDS011;18309;43.658;1.312;2024-03-02T00:41:06;13.13;;;3.42;;
31728;SDS011;18309;43.658;1.312;2024-03-02T00:43:45;12.35;;;4.10;;
31728;SDS011;18309;43.658;1.312;2024-03-02T00:46:19;14.77;;;4.15;;
31728;SDS011;18309;43.658;1.312;2024-03-02T00:48:51;7.90;;;3.25;;
31728;SDS011;18309;43.658;1.312;2024-03-02T00:51:22;6.70;;;2.22;;
31728;SDS011;18309;43.658;1.312;2024-03-02T00:53:49;5.85;;;1.80;;
31728;SDS011;18309;43.658;1.312;2024-03-02T00:56:15;11.55;;;3.20;;
31728;SDS011;18309;43.658;1.312;2024-03-02T00:58:42;9.90;;;2.67;;
31728;SDS011;18309;43.658;1.312;2024-03-02T01:01:07;9.82;;;2.58;;
31728;SDS011;18309;43.658;1.312;2024-03-02T01:03:34;11.05;;;2.40;;
31728;SDS011;18309;43.658;1.312;2024-03-02T01:06:00;5.43;;;1.70;;
31728;SDS011;18309;43.658;1.312;2024-03-02T01:08:26;12.02;;;2.33;;
31728;SDS011;18309;43.658;1.312;2024-03-02T01:10:52;6.20;;;1.80;;
31728;SDS011;18309;43.658;1.312;2024-03-02T01:13:17;4.72;;;1.83;;
31728;SDS011;18309;43.658;1.312;2024-03-02T01:15:43;4.15;;;1.90;;
31728;SDS011;18309;43.658;1.312;2024-03-02T01:18:09;9.88;;;3.58;;
31728;SDS011;18309;43.658;1.312;2024-03-02T01:20:35;14.63;;;3.42;;
31728;SDS011;18309;43.658;1.312;2024-03-02T01:23:01;12.80;;;3.65;;
31728;SDS011;18309;43.658;1.312;2024-03-02T01:25:26;15.77;;;3.35;;
31728;SDS011;18309;43.658;1.312;2024-03-02T01:27:52;23.05;;;4.47;;
31728;SDS011;18309;43.658;1.312;2024-03-02T01:30:18;10.88;;;2.90;;
31728;SDS011;18309;43.658;1.312;2024-03-02T01:32:43;8.07;;;1.98;;
31728;SDS011;18309;43.658;1.312;2024-03-02T01:35:10;8.98;;;1.55;;
31728;SDS011;18309;43.658;1.312;2024-03-02T01:37:36;5.53;;;1.10;;
31728;SDS011;18309;43.658;1.312;2024-03-02T01:40:01;3.40;;;1.17;;
31728;SDS011;18309;43.658;1.312;2024-03-02T01:42:28;5.57;;;0.90;;
31728;SDS011;18309;43.658;1.312;2024-03-02T01:44:54;5.30;;;0.88;;
31728;SDS011;18309;43.658;1.312;2024-03-02T01:47:19;13.00;;;1.75;;
31728;SDS011;18309;43.658;1.312;2024-03-02T01:49:46;4.50;;;0.93;;
31728;SDS011;18309;43.658;1.312;2024-03-02T01:52:11;12.65;;;1.17;;
31728;SDS011;18309;43.658;1.312;2024-03-02T01:54:37;6.30;;;0.82;;
31728;SDS011;18309;43.658;1.312;2024-03-02T01:57:03;11.20;;;1.38;;
31728;SDS011;18309;43.658;1.312;2024-03-02T01:59:29;2.22;;;0.55;;
31728;SDS011;18309;43.658;1.312;2024-03-02T02:01:54;8.93;;;1.30;;
31728;SDS011;18309;43.658;1.312;2024-03-02T02:04:20;7.55;;;1.35;;
31728;SDS011;18309;43.658;1.312;2024-03-02T02:06:52;18.23;;;2.50;;
31728;SDS011;18309;43.658;1.312;2024-03-02T02:09:17;14.50;;;2.08;;
31728;SDS011;18309;43.658;1.312;2024-03-02T02:11:43;9.48;;;1.88;;
31728;SDS011;18309;43.658;1.312;2024-03-02T02:14:09;11.90;;;2.28;;
31728;SDS011;18309;43.658;1.312;2024-03-02T02:16:36;8.73;;;2.08;;
31728;SDS011;18309;43.658;1.312;2024-03-02T02:19:02;6.57;;;1.30;;
31728;SDS011;18309;43.658;1.312;2024-03-02T02:21:28;5.85;;;1.67;;
31728;SDS011;18309;43.658;1.312;2024-03-02T02:23:53;10.20;;;1.77;;
31728;SDS011;18309;43.658;1.312;2024-03-02T02:26:19;11.23;;;2.25;;
31728;SDS011;18309;43.658;1.312;2024-03-02T02:28:45;10.13;;;1.75;;
31728;SDS011;18309;43.658;1.312;2024-03-02T02:31:13;9.80;;;2.17;;
31728;SDS011;18309;43.658;1.312;2024-03-02T02:33:42;8.48;;;1.63;;
31728;SDS011;18309;43.658;1.312;2024-03-02T02:36:08;10.60;;;1.75;;
31728;SDS011;18309;43.658;1.312;2024-03-02T02:38:38;7.97;;;1.52;;
31728;SDS011;18309;43.658;1.312;2024-03-02T02:41:08;5.22;;;1.85;;
31728;SDS011;18309;43.658;1.312;2024-03-02T02:43:33;12.07;;;1.70;;
31728;SDS011;18309;43.658;1.312;2024-03-02T02:45:59;9.88;;;1.63;;
31728;SDS011;18309;43.658;1.312;2024-03-02T02:48:25;10.18;;;1.65;;
31728;SDS011;18309;43.658;1.312;2024-03-02T02:50:50;6.93;;;1.08;;
31728;SDS011;18309;43.658;1.312;2024-03-02T02:53:16;7.63;;;0.82;;
31728;SDS011;18309;43.658;1.312;2024-03-02T02:55:42;5.60;;;0.88;;
31728;SDS011;18309;43.658;1.312;2024-03-02T02:58:12;5.47;;;0.95;;
31728;SDS011;18309;43.658;1.312;2024-03-02T03:00:38;7.70;;;1.00;;
31728;SDS011;18309;43.658;1.312;2024-03-02T03:03:03;4.85;;;0.82;;
31728;SDS011;18309;43.658;1.312;2024-03-02T03:05:30;7.05;;;1.67;;
31728;SDS011;18309;43.658;1.312;2024-03-02T03:07:56;5.68;;;0.98;;
31728;SDS011;18309;43.658;1.312;2024-03-02T03:10:21;4.63;;;1.00;;
31728;SDS011;18309;43.658;1.312;2024-03-02T03:12:50;3.63;;;0.90;;
31728;SDS011;18309;43.658;1.312;2024-03-02T03:15:16;5.93;;;0.98;;
31728;SDS011;18309;43.658;1.312;2024-03-02T03:17:42;9.35;;;1.10;;
31728;SDS011;18309;43.658;1.312;2024-03-02T03:20:08;2.85;;;0.55;;
31728;SDS011;18309;43.658;1.312;2024-03-02T03:22:40;3.30;;;0.63;;
31728;SDS011;18309;43.658;1.312;2024-03-02T03:25:06;5.43;;;0.73;;
31728;SDS011;18309;43.658;1.312;2024-03-02T03:27:35;6.53;;;1.10;;
31728;SDS011;18309;43.658;1.312;2024-03-02T03:30:01;3.42;;;0.50;;
31728;SDS011;18309;43.658;1.312;2024-03-02T03:32:27;3.05;;;0.65;;
31728;SDS011;18309;43.658;1.312;2024-03-02T03:34:53;6.55;;;1.13;;
31728;SDS011;18309;43.658;1.312;2024-03-02T03:37:20;7.88;;;1.20;;
31728;SDS011;18309;43.658;1.312;2024-03-02T03:39:46;8.57;;;1.33;;
31728;SDS011;18309;43.658;1.312;2024-03-02T03:42:11;4.53;;;0.77;;
31728;SDS011;18309;43.658;1.312;2024-03-02T03:44:37;3.50;;;0.80;;
31728;SDS011;18309;43.658;1.312;2024-03-02T03:47:04;3.97;;;0.70;;
31728;SDS011;18309;43.658;1.312;2024-03-02T03:49:30;7.25;;;0.90;;
31728;SDS011;18309;43.658;1.312;2024-03-02T03:51:55;4.45;;;0.75;;
31728;SDS011;18309;43.658;1.312;2024-03-02T03:54:21;6.82;;;1.25;;
31728;SDS011;18309;43.658;1.312;2024-03-02T03:56:46;3.45;;;1.30;;
31728;SDS011;18309;43.658;1.312;2024-03-02T03:59:12;4.30;;;1.00;;
31728;SDS011;18309;43.658;1.312;2024-03-02T04:01:38;7.90;;;1.52;;
31728;SDS011;18309;43.658;1.312;2024-03-02T04:04:03;8.88;;;1.88;;
31728;SDS011;18309;43.658;1.312;2024-03-02T04:06:29;7.30;;;2.22;;
31728;SDS011;18309;43.658;1.312;2024-03-02T04:08:56;12.20;;;2.45;;
31728;SDS011;18309;43.658;1.312;2024-03-02T04:11:22;6.05;;;2.30;;
31728;SDS011;18309;43.658;1.312;2024-03-02T04:13:48;14.20;;;3.33;;
31728;SDS011;18309;43.658;1.312;2024-03-02T04:16:13;10.20;;;2.95;;
31728;SDS011;18309;43.658;1.312;2024-03-02T04:18:39;5.90;;;2.95;;
31728;SDS011;18309;43.658;1.312;2024-03-02T04:21:05;9.18;;;3.13;;
31728;SDS011;18309;43.658;1.312;2024-03-02T04:23:31;11.45;;;3.47;;
31728;SDS011;18309;43.658;1.312;2024-03-02T04:25:56;13.40;;;3.95;;
31728;SDS011;18309;43.658;1.312;2024-03-02T04:28:22;10.55;;;3.92;;
31728;SDS011;18309;43.658;1.312;2024-03-02T04:30:48;7.22;;;3.20;;
31728;SDS011;18309;43.658;1.312;2024-03-02T04:33:13;13.25;;;3.95;;
31728;SDS011;18309;43.658;1.312;2024-03-02T04:35:39;11.25;;;3.45;;
31728;SDS011;18309;43.658;1.312;2024-03-02T04:38:04;14.50;;;4.30;;
31728;SDS011;18309;43.658;1.312;2024-03-02T04:40:30;7.82;;;4.13;;
31728;SDS011;18309;43.658;1.312;2024-03-02T04:42:57;11.75;;;3.35;;
31728;SDS011;18309;43.658;1.312;2024-03-02T04:45:24;8.18;;;3.33;;
31728;SDS011;18309;43.658;1.312;2024-03-02T04:47:49;11.35;;;3.65;;
31728;SDS011;18309;43.658;1.312;2024-03-02T04:50:15;10.98;;;3.85;;
31728;SDS011;18309;43.658;1.312;2024-03-02T04:52:41;10.35;;;4.05;;
31728;SDS011;18309;43.658;1.312;2024-03-02T04:55:07;12.07;;;4.07;;
31728;SDS011;18309;43.658;1.312;2024-03-02T04:57:44;12.00;;;4.20;;
31728;SDS011;18309;43.658;1.312;2024-03-02T05:00:11;13.48;;;4.10;;
31728;SDS011;18309;43.658;1.312;2024-03-02T05:02:37;8.45;;;3.40;;
31728;SDS011;18309;43.658;1.312;2024-03-02T05:05:03;15.07;;;4.10;;
31728;SDS011;18309;43.658;1.312;2024-03-02T05:07:29;13.93;;;3.88;;
31728;SDS011;18309;43.658;1.312;2024-03-02T05:09:55;11.15;;;4.18;;
31728;SDS011;18309;43.658;1.312;2024-03-02T05:12:20;7.85;;;3.67;;
31728;SDS011;18309;43.658;1.312;2024-03-02T05:15:05;8.93;;;3.55;;
31728;SDS011;18309;43.658;1.312;2024-03-02T05:17:32;9.35;;;3.95;;
31728;SDS011;18309;43.658;1.312;2024-03-02T05:19:58;10.40;;;4.00;;
31728;SDS011;18309;43.658;1.312;2024-03-02T05:22:24;10.93;;;4.03;;
31728;SDS011;18309;43.658;1.312;2024-03-02T05:24:49;13.35;;;4.15;;
31728;SDS011;18309;43.658;1.312;2024-03-02T05:27:15;10.45;;;4.13;;
31728;SDS011;18309;43.658;1.312;2024-03-02T05:29:41;10.23;;;4.22;;
31728;SDS011;18309;43.658;1.312;2024-03-02T05:32:06;9.70;;;4.35;;
31728;SDS011;18309;43.658;1.312;2024-03-02T05:34:32;18.17;;;3.92;;
31728;SDS011;18309;43.658;1.312;2024-03-02T05:37:00;8.45;;;3.70;;
31728;SDS011;18309;43.658;1.312;2024-03-02T05:39:26;9.77;;;4.15;;
31728;SDS011;18309;43.658;1.312;2024-03-02T05:41:52;11.95;;;4.10;;
31728;SDS011;18309;43.658;1.312;2024-03-02T05:44:17;11.35;;;4.32;;
31728;SDS011;18309;43.658;1.312;2024-03-02T05:46:44;12.00;;;4.80;;
31728;SDS011;18309;43.658;1.312;2024-03-02T05:49:10;14.57;;;3.67;;
31728;SDS011;18309;43.658;1.312;2024-03-02T05:51:36;8.77;;;4.13;;
31728;SDS011;18309;43.658;1.312;2024-03-02T05:54:01;11.65;;;4.55;;
31728;SDS011;18309;43.658;1.312;2024-03-02T05:56:27;11.00;;;3.67;;
31728;SDS011;18309;43.658;1.312;2024-03-02T05:58:53;10.15;;;4.00;;
31728;SDS011;18309;43.658;1.312;2024-03-02T06:01:41;6.97;;;3.50;;
31728;SDS011;18309;43.658;1.312;2024-03-02T06:04:08;8.55;;;3.38;;
31728;SDS011;18309;43.658;1.312;2024-03-02T06:06:36;22.58;;;4.38;;
31728;SDS011;18309;43.658;1.312;2024-03-02T06:09:02;11.43;;;4.25;;
31728;SDS011;18309;43.658;1.312;2024-03-02T06:11:37;11.10;;;4.20;;
31728;SDS011;18309;43.658;1.312;2024-03-02T06:14:04;8.57;;;3.38;;
31728;SDS011;18309;43.658;1.312;2024-03-02T06:16:33;9.65;;;3.30;;
31728;SDS011;18309;43.658;1.312;2024-03-02T06:19:00;8.43;;;3.40;;
31728;SDS011;18309;43.658;1.312;2024-03-02T06:21:26;7.47;;;3.70;;
31728;SDS011;18309;43.658;1.312;2024-03-02T06:23:52;13.27;;;3.78;;
31728;SDS011;18309;43.658;1.312;2024-03-02T06:26:18;8.82;;;3.53;;
31728;SDS011;18309;43.658;1.312;2024-03-02T06:28:45;11.57;;;3.80;;
31728;SDS011;18309;43.658;1.312;2024-03-02T06:31:11;10.18;;;3.47;;
31728;SDS011;18309;43.658;1.312;2024-03-02T06:33:37;9.05;;;3.67;;
31728;SDS011;18309;43.658;1.312;2024-03-02T06:36:03;9.98;;;3.58;;
31728;SDS011;18309;43.658;1.312;2024-03-02T06:38:29;7.30;;;3.35;;
31728;SDS011;18309;43.658;1.312;2024-03-02T06:40:57;8.95;;;3.92;;
31728;SDS011;18309;43.658;1.312;2024-03-02T06:43:22;9.38;;;3.88;;
31728;SDS011;18309;43.658;1.312;2024-03-02T06:45:49;10.23;;;3.60;;
31728;SDS011;18309;43.658;1.312;2024-03-02T06:48:15;12.10;;;3.97;;
31728;SDS011;18309;43.658;1.312;2024-03-02T06:50:45;6.80;;;3.38;;
31728;SDS011;18309;43.658;1.312;2024-03-02T06:53:12;11.00;;;3.80;;
31728;SDS011;18309;43.658;1.312;2024-03-02T06:55:37;12.27;;;3.75;;
31728;SDS011;18309;43.658;1.312;2024-03-02T06:58:03;8.93;;;3.72;;
31728;SDS011;18309;43.658;1.312;2024-03-02T07:00:29;11.30;;;4.22;;
31728;SDS011;18309;43.658;1.312;2024-03-02T07:02:55;14.48;;;4.20;;
31728;SDS011;18309;43.658;1.312;2024-03-02T07:05:21;12.57;;;4.85;;
31728;SDS011;18309;43.658;1.312;2024-03-02T07:07:46;10.48;;;4.93;;
31728;SDS011;18309;43.658;1.312;2024-03-02T07:10:12;14.07;;;4.05;;
31728;SDS011;18309;43.658;1.312;2024-03-02T07:12:38;11.38;;;4.30;;
31728;SDS011;18309;43.658;1.312;2024-03-02T07:15:04;10.38;;;4.05;;
31728;SDS011;18309;43.658;1.312;2024-03-02T07:17:30;18.02;;;4.43;;
31728;SDS011;18309;43.658;1.312;2024-03-02T07:19:56;10.02;;;3.70;;
31728;SDS011;18309;43.658;1.312;2024-03-02T07:22:22;19.52;;;4.32;;
31728;SDS011;18309;43.658;1.312;2024-03-02T07:24:48;12.40;;;4.78;;
31728;SDS011;18309;43.658;1.312;2024-03-02T07:27:15;8.68;;;4.38;;
31728;SDS011;18309;43.658;1.312;2024-03-02T07:29:42;9.48;;;3.85;;
31728;SDS011;18309;43.658;1.312;2024-03-02T07:32:08;12.38;;;4.15;;
31728;SDS011;18309;43.658;1.312;2024-03-02T07:34:35;11.82;;;4.00;;
31728;SDS011;18309;43.658;1.312;2024-03-02T07:37:02;11.63;;;3.67;;
31728;SDS011;18309;43.658;1.312;2024-03-02T07:39:28;9.27;;;4.28;;
31728;SDS011;18309;43.658;1.312;2024-03-02T07:41:54;10.50;;;4.45;;
31728;SDS011;18309;43.658;1.312;2024-03-02T07:44:20;13.52;;;4.60;;
31728;SDS011;18309;43.658;1.312;2024-03-02T07:46:46;9.93;;;3.90;;
31728;SDS011;18309;43.658;1.312;2024-03-02T07:49:14;9.90;;;3.97;;
31728;SDS011;18309;43.658;1.312;2024-03-02T07:51:40;13.88;;;4.50;;
31728;SDS011;18309;43.658;1.312;2024-03-02T07:54:06;11.32;;;4.32;;
31728;SDS011;18309;43.658;1.312;2024-03-02T07:56:32;10.98;;;4.65;;
31728;SDS011;18309;43.658;1.312;2024-03-02T07:58:57;11.10;;;3.92;;
31728;SDS011;18309;43.658;1.312;2024-03-02T08:01:27;10.73;;;4.00;;
31728;SDS011;18309;43.658;1.312;2024-03-02T08:03:55;18.15;;;4.75;;
31728;SDS011;18309;43.658;1.312;2024-03-02T08:06:24;14.40;;;4.55;;
31728;SDS011;18309;43.658;1.312;2024-03-02T08:08:54;13.50;;;3.95;;
31728;SDS011;18309;43.658;1.312;2024-03-02T08:11:20;12.15;;;4.13;;
31728;SDS011;18309;43.658;1.312;2024-03-02T08:13:46;12.57;;;3.30;;
31728;SDS011;18309;43.658;1.312;2024-03-02T08:16:12;10.38;;;3.53;;
31728;SDS011;18309;43.658;1.312;2024-03-02T08:18:39;12.80;;;2.80;;
31728;SDS011;18309;43.658;1.312;2024-03-02T08:21:04;7.70;;;2.42;;
31728;SDS011;18309;43.658;1.312;2024-03-02T08:23:30;10.40;;;3.08;;
31728;SDS011;18309;43.658;1.312;2024-03-02T08:25:57;10.52;;;3.28;;
31728;SDS011;18309;43.658;1.312;2024-03-02T08:28:22;11.13;;;3.35;;
31728;SDS011;18309;43.658;1.312;2024-03-02T08:30:48;9.15;;;3.63;;
31728;SDS011;18309;43.658;1.312;2024-03-02T08:33:14;12.98;;;2.88;;
31728;SDS011;18309;43.658;1.312;2024-03-02T08:35:39;8.10;;;3.33;;
31728;SDS011;18309;43.658;1.312;2024-03-02T08:38:05;9.07;;;2.47;;
31728;SDS011;18309;43.658;1.312;2024-03-02T08:40:31;8.15;;;3.47;;
31728;SDS011;18309;43.658;1.312;2024-03-02T08:42:56;10.13;;;2.67;;
31728;SDS011;18309;43.658;1.312;2024-03-02T08:45:22;6.90;;;2.53;;
31728;SDS011;18309;43.658;1.312;2024-03-02T08:47:48;9.23;;;3.58;;
31728;SDS011;18309;43.658;1.312;2024-03-02T08:50:14;9.57;;;3.33;;
31728;SDS011;18309;43.658;1.312;2024-03-02T08:52:39;11.25;;;3.85;;
31728;SDS011;18309;43.658;1.312;2024-03-02T08:55:05;14.73;;;3.13;;
31728;SDS011;18309;43.658;1.312;2024-03-02T08:57:32;6.50;;;3.25;;
31728;SDS011;18309;43.658;1.312;2024-03-02T08:59:58;10.88;;;2.78;;
31728;SDS011;18309;43.658;1.312;2024-03-02T09:02:24;6.95;;;2.50;;
31728;SDS011;18309;43.658;1.312;2024-03-02T09:04:50;11.18;;;2.67;;
31728;SDS011;18309;43.658;1.312;2024-03-02T09:07:16;7.43;;;2.80;;
31728;SDS011;18309;43.658;1.312;2024-03-02T09:09:42;8.40;;;2.80;;
31728;SDS011;18309;43.658;1.312;2024-03-02T09:12:08;9.43;;;3.15;;
31728;SDS011;18309;43.658;1.312;2024-03-02T09:14:34;9.43;;;2.85;;
31728;SDS011;18309;43.658;1.312;2024-03-02T09:17:02;9.75;;;3.97;;
31728;SDS011;18309;43.658;1.312;2024-03-02T09:19:28;15.27;;;3.00;;
31728;SDS011;18309;43.658;1.312;2024-03-02T09:21:54;10.20;;;2.78;;
31728;SDS011;18309;43.658;1.312;2024-03-02T09:24:21;10.55;;;3.35;;
31728;SDS011;18309;43.658;1.312;2024-03-02T09:26:46;12.30;;;3.10;;
31728;SDS011;18309;43.658;1.312;2024-03-02T09:29:12;13.75;;;3.63;;
31728;SDS011;18309;43.658;1.312;2024-03-02T09:31:42;14.57;;;3.35;;
31728;SDS011;18309;43.658;1.312;2024-03-02T09:34:08;17.53;;;3.57;;
31728;SDS011;18309;43.658;1.312;2024-03-02T09:36:34;18.73;;;2.83;;
31728;SDS011;18309;43.658;1.312;2024-03-02T09:38:59;14.30;;;2.80;;
31728;SDS011;18309;43.658;1.312;2024-03-02T09:41:25;14.60;;;3.13;;
31728;SDS011;18309;43.658;1.312;2024-03-02T09:43:51;15.02;;;3.33;;
31728;SDS011;18309;43.658;1.312;2024-03-02T09:46:17;16.95;;;3.50;;
31728;SDS011;18309;43.658;1.312;2024-03-02T09:48:44;13.57;;;3.20;;
31728;SDS011;18309;43.658;1.312;2024-03-02T09:51:10;14.00;;;3.67;;
31728;SDS011;18309;43.658;1.312;2024-03-02T09:53:36;18.83;;;4.20;;
31728;SDS011;18309;43.658;1.312;2024-03-02T09:56:02;17.63;;;3.67;;
31728;SDS011;18309;43.658;1.312;2024-03-02T09:58:29;11.77;;;3.95;;
31728;SDS011;18309;43.658;1.312;2024-03-02T10:00:55;13.18;;;3.85;;
31728;SDS011;18309;43.658;1.312;2024-03-02T10:03:22;10.60;;;3.58;;
31728;SDS011;18309;43.658;1.312;2024-03-02T10:05:52;18.10;;;3.60;;
31728;SDS011;18309;43.658;1.312;2024-03-02T10:08:17;16.83;;;3.55;;
31728;SDS011;18309;43.658;1.312;2024-03-02T10:10:44;14.23;;;3.83;;
31728;SDS011;18309;43.658;1.312;2024-03-02T10:13:11;18.33;;;3.95;;
31728;SDS011;18309;43.658;1.312;2024-03-02T10:15:38;15.82;;;3.33;;
31728;SDS011;18309;43.658;1.312;2024-03-02T10:18:11;13.10;;;3.30;;
31728;SDS011;18309;43.658;1.312;2024-03-02T10:20:38;21.97;;;3.93;;
31728;SDS011;18309;43.658;1.312;2024-03-02T10:23:10;14.45;;;3.30;;
31728;SDS011;18309;43.658;1.312;2024-03-02T10:25:37;19.45;;;4.38;;
31728;SDS011;18309;43.658;1.312;2024-03-02T10:28:03;14.55;;;3.47;;
31728;SDS011;18309;43.658;1.312;2024-03-02T10:30:32;16.40;;;3.58;;
31728;SDS011;18309;43.658;1.312;2024-03-02T10:33:00;11.68;;;3.22;;
31728;SDS011;18309;43.658;1.312;2024-03-02T10:35:26;22.52;;;3.25;;
31728;SDS011;18309;43.658;1.312;2024-03-02T10:37:53;12.45;;;3.47;;
31728;SDS011;18309;43.658;1.312;2024-03-02T10:40:22;10.73;;;3.28;;
31728;SDS011;18309;43.658;1.312;2024-03-02T10:42:48;14.32;;;4.18;;
31728;SDS011;18309;43.658;1.312;2024-03-02T10:45:15;13.32;;;3.83;;
31728;SDS011;18309;43.658;1.312;2024-03-02T10:47:44;15.55;;;3.50;;
31728;SDS011;18309;43.658;1.312;2024-03-02T10:50:12;15.05;;;3.72;;
31728;SDS011;18309;43.658;1.312;2024-03-02T10:52:38;16.98;;;4.20;;
31728;SDS011;18309;43.658;1.312;2024-03-02T10:55:07;19.00;;;3.95;;
31728;SDS011;18309;43.658;1.312;2024-03-02T11:00:06;23.20;;;3.83;;
31728;SDS011;18309;43.658;1.312;2024-03-02T11:02:40;17.38;;;3.35;;
31728;SDS011;18309;43.658;1.312;2024-03-02T11:05:20;19.98;;;4.05;;
31728;SDS011;18309;43.658;1.312;2024-03-02T11:08:02;20.75;;;4.13;;
31728;SDS011;18309;43.658;1.312;2024-03-02T11:10:34;10.23;;;2.97;;
31728;SDS011;18309;43.658;1.312;2024-03-02T11:13:05;15.93;;;3.70;;
31728;SDS011;18309;43.658;1.312;2024-03-02T11:15:34;13.98;;;3.92;;
31728;SDS011;18309;43.658;1.312;2024-03-02T11:18:03;20.67;;;4.85;;
31728;SDS011;18309;43.658;1.312;2024-03-02T11:20:33;8.68;;;3.00;;
31728;SDS011;18309;43.658;1.312;2024-03-02T11:23:04;15.30;;;3.40;;
31728;SDS011;18309;43.658;1.312;2024-03-02T11:25:31;16.23;;;3.80;;
31728;SDS011;18309;43.658;1.312;2024-03-02T11:28:01;15.07;;;2.75;;
31728;SDS011;18309;43.658;1.312;2024-03-02T11:32:56;24.35;;;3.67;;
31728;SDS011;18309;43.658;1.312;2024-03-02T11:35:30;21.13;;;3.67;;
31728;SDS011;18309;43.658;1.312;2024-03-02T11:37:56;16.42;;;3.70;;
31728;SDS011;18309;43.658;1.312;2024-03-02T11:40:25;11.52;;;3.38;;
31728;SDS011;18309;43.658;1.312;2024-03-02T11:42:51;19.00;;;3.65;;
31728;SDS011;18309;43.658;1.312;2024-03-02T11:45:17;25.15;;;3.38;;
31728;SDS011;18309;43.658;1.312;2024-03-02T11:47:51;16.70;;;3.40;;
31728;SDS011;18309;43.658;1.312;2024-03-02T11:50:33;20.50;;;3.93;;
31728;SDS011;18309;43.658;1.312;2024-03-02T11:53:08;20.35;;;3.50;;
31728;SDS011;18309;43.658;1.312;2024-03-02T11:55:38;15.05;;;3.47;;
31728;SDS011;18309;43.658;1.312;2024-03-02T11:58:06;19.75;;;3.35;;
31728;SDS011;18309;43.658;1.312;2024-03-02T12:00:32;22.65;;;3.58;;
31728;SDS011;18309;43.658;1.312;2024-03-02T12:05:27;17.58;;;3.30;;
31728;SDS011;18309;43.658;1.312;2024-03-02T12:08:00;18.80;;;3.45;;
31728;SDS011;18309;43.658;1.312;2024-03-02T12:10:27;17.63;;;2.83;;
31728;SDS011;18309;43.658;1.312;2024-03-02T12:13:05;15.43;;;3.35;;
31728;SDS011;18309;43.658;1.312;2024-03-02T12:15:35;22.05;;;3.03;;
31728;SDS011;18309;43.658;1.312;2024-03-02T12:18:02;22.83;;;2.85;;
31728;SDS011;18309;43.658;1.312;2024-03-02T12:20:29;12.95;;;2.92;;
31728;SDS011;18309;43.658;1.312;2024-03-02T12:22:57;12.60;;;2.80;;
31728;SDS011;18309;43.658;1.312;2024-03-02T12:25:24;14.50;;;2.75;;
31728;SDS011;18309;43.658;1.312;2024-03-02T12:27:55;9.60;;;1.88;;
31728;SDS011;18309;43.658;1.312;2024-03-02T12:30:24;12.73;;;2.55;;
31728;SDS011;18309;43.658;1.312;2024-03-02T12:32:52;15.02;;;2.85;;
31728;SDS011;18309;43.658;1.312;2024-03-02T12:35:18;16.30;;;2.88;;
31728;SDS011;18309;43.658;1.312;2024-03-02T12:37:47;7.80;;;2.97;;
31728;SDS011;18309;43.658;1.312;2024-03-02T12:40:16;18.83;;;4.15;;
31728;SDS011;18309;43.658;1.312;2024-03-02T12:42:43;15.65;;;4.30;;
31728;SDS011;18309;43.658;1.312;2024-03-02T12:45:10;12.80;;;2.83;;
31728;SDS011;18309;43.658;1.312;2024-03-02T12:47:39;19.67;;;3.28;;
31728;SDS011;18309;43.658;1.312;2024-03-02T12:50:06;12.23;;;3.10;;
31728;SDS011;18309;43.658;1.312;2024-03-02T12:52:32;12.65;;;2.50;;
31728;SDS011;18309;43.658;1.312;2024-03-02T12:55:02;17.15;;;2.97;;
31728;SDS011;18309;43.658;1.312;2024-03-02T12:57:33;12.90;;;3.00;;
31728;SDS011;18309;43.658;1.312;2024-03-02T12:59:59;10.73;;;3.47;;
31728;SDS011;18309;43.658;1.312;2024-03-02T13:02:29;13.02;;;3.35;;
31728;SDS011;18309;43.658;1.312;2024-03-02T13:04:57;9.75;;;2.42;;
31728;SDS011;18309;43.658;1.312;2024-03-02T13:07:24;13.05;;;3.40;;
31728;SDS011;18309;43.658;1.312;2024-03-02T13:09:51;17.45;;;3.40;;
31728;SDS011;18309;43.658;1.312;2024-03-02T13:12:20;17.77;;;3.63;;
31728;SDS011;18309;43.658;1.312;2024-03-02T13:14:54;12.07;;;3.25;;
31728;SDS011;18309;43.658;1.312;2024-03-02T13:17:19;12.95;;;2.40;;
31728;SDS011;18309;43.658;1.312;2024-03-02T13:19:55;13.95;;;3.50;;
31728;SDS011;18309;43.658;1.312;2024-03-02T13:22:22;12.27;;;3.45;;
31728;SDS011;18309;43.658;1.312;2024-03-02T13:24:48;12.02;;;2.65;;
31728;SDS011;18309;43.658;1.312;2024-03-02T13:27:15;9.77;;;2.97;;
31728;SDS011;18309;43.658;1.312;2024-03-02T13:29:41;12.63;;;2.95;;
31728;SDS011;18309;43.658;1.312;2024-03-02T13:32:07;11.57;;;2.60;;
31728;SDS011;18309;43.658;1.312;2024-03-02T13:34:34;7.97;;;2.80;;
31728;SDS011;18309;43.658;1.312;2024-03-02T13:37:01;12.52;;;2.85;;
31728;SDS011;18309;43.658;1.312;2024-03-02T13:39:27;19.63;;;3.00;;
31728;SDS011;18309;43.658;1.312;2024-03-02T13:41:55;10.15;;;2.88;;
31728;SDS011;18309;43.658;1.312;2024-03-02T13:44:28;16.15;;;2.40;;
31728;SDS011;18309;43.658;1.312;2024-03-02T13:46:54;11.73;;;2.35;;
31728;SDS011;18309;43.658;1.312;2024-03-02T13:49:20;11.95;;;2.67;;
31728;SDS011;18309;43.658;1.312;2024-03-02T13:51:46;17.02;;;3.03;;
31728;SDS011;18309;43.658;1.312;2024-03-02T13:54:11;11.82;;;2.13;;
31728;SDS011;18309;43.658;1.312;2024-03-02T13:56:37;9.18;;;2.67;;
31728;SDS011;18309;43.658;1.312;2024-03-02T13:59:05;8.73;;;2.67;;
31728;SDS011;18309;43.658;1.312;2024-03-02T14:01:31;9.35;;;2.30;;
31728;SDS011;18309;43.658;1.312;2024-03-02T14:03:58;9.95;;;2.70;;
31728;SDS011;18309;43.658;1.312;2024-03-02T14:06:23;17.00;;;3.33;;
31728;SDS011;18309;43.658;1.312;2024-03-02T14:08:51;9.20;;;2.83;;
31728;SDS011;18309;43.658;1.312;2024-03-02T14:11:18;11.88;;;2.33;;
31728;SDS011;18309;43.658;1.312;2024-03-02T14:13:44;16.25;;;3.28;;
31728;SDS011;18309;43.658;1.312;2024-03-02T14:16:18;12.18;;;3.08;;
31728;SDS011;18309;43.658;1.312;2024-03-02T14:18:44;8.52;;;2.55;;
31728;SDS011;18309;43.658;1.312;2024-03-02T14:21:10;10.00;;;2.85;;
31728;SDS011;18309;43.658;1.312;2024-03-02T14:23:37;16.40;;;3.08;;
31728;SDS011;18309;43.658;1.312;2024-03-02T14:26:03;11.70;;;2.58;;
31728;SDS011;18309;43.658;1.312;2024-03-02T14:28:29;15.70;;;2.67;;
31728;SDS011;18309;43.658;1.312;2024-03-02T14:30:54;14.32;;;3.75;;
31728;SDS011;18309;43.658;1.312;2024-03-02T14:33:20;10.10;;;3.38;;
31728;SDS011;18309;43.658;1.312;2024-03-02T14:35:46;10.45;;;2.97;;
31728;SDS011;18309;43.658;1.312;2024-03-02T14:38:12;17.50;;;3.30;;
31728;SDS011;18309;43.658;1.312;2024-03-02T14:40:38;14.38;;;3.22;;
31728;SDS011;18309;43.658;1.312;2024-03-02T14:43:03;14.35;;;2.70;;
31728;SDS011;18309;43.658;1.312;2024-03-02T14:45:29;8.23;;;2.83;;
31728;SDS011;18309;43.658;1.312;2024-03-02T14:47:55;16.98;;;2.67;;
31728;SDS011;18309;43.658;1.312;2024-03-02T14:50:25;15.68;;;2.83;;